createdAt,value
2023-05-20T00:01:46.364Z,95.25
2023-05-20T00:06:48.138Z,95.33
2023-05-20T00:11:50.036Z,95.25
2023-05-20T00:16:52.023Z,94.98
2023-05-20T00:21:53.838Z,94.92
2023-05-20T00:26:55.763Z,95.08
2023-05-20T00:31:57.624Z,95.03
2023-05-20T00:36:59.763Z,95.34
2023-05-20T00:42:03.515Z,95.04
2023-05-20T00:47:05.535Z,94.83
2023-05-20T00:52:08.381Z,94.76
2023-05-20T00:57:10.747Z,94.71
2023-05-20T01:02:12.853Z,94.88
2023-05-20T01:07:19.419Z,94.58
2023-05-20T01:12:26.427Z,94.72
2023-05-20T01:17:32.987Z,94.48
2023-05-20T01:22:58.110Z,94.53
2023-05-20T01:27:59.912Z,94.29
2023-05-20T01:33:07.276Z,94.17
2023-05-20T01:38:09.557Z,94.24
2023-05-20T01:43:12.418Z,94.07
2023-05-20T01:48:16.918Z,93.65
2023-05-20T01:53:18.803Z,93.25
2023-05-20T01:58:20.759Z,93.50
2023-05-20T02:03:22.805Z,93.55
2023-05-20T02:08:24.734Z,93.48
2023-05-20T02:13:26.594Z,93.43
2023-05-20T02:18:28.433Z,93.15
2023-05-20T02:23:33.180Z,93.13
2023-05-20T02:28:35.039Z,93.31
2023-05-20T02:33:36.917Z,93.61
2023-05-20T02:38:39.024Z,93.77
2023-05-20T02:43:40.838Z,94.18
2023-05-20T02:48:42.595Z,93.85
2023-05-20T02:53:44.432Z,93.82
2023-05-20T02:58:46.707Z,93.84
2023-05-20T03:03:49.203Z,93.79
2023-05-20T03:08:51.397Z,93.83
2023-05-20T03:13:53.277Z,94.04
2023-05-20T03:18:55.194Z,94.35
2023-05-20T03:23:57.101Z,94.74
2023-05-20T03:28:59.355Z,94.86
2023-05-20T03:34:02.027Z,94.67
2023-05-20T03:39:04.630Z,94.95
2023-05-20T03:44:07.299Z,94.85
2023-05-20T03:49:09.336Z,94.96
2023-05-20T03:54:12.041Z,95.91
2023-05-20T03:59:15.098Z,96.56
2023-05-20T04:07:13.612Z,97.07
2023-05-20T04:12:16.044Z,97.56
2023-05-20T04:17:17.818Z,97.85
2023-05-20T04:22:19.879Z,97.85
2023-05-20T04:27:21.866Z,97.94
2023-05-20T04:32:23.814Z,97.44
2023-05-20T04:37:26.333Z,97.47
2023-05-20T04:42:29.892Z,97.39
2023-05-20T04:47:38.617Z,97.10
2023-05-20T04:52:46.207Z,96.78
2023-05-20T04:57:48.191Z,95.86
2023-05-20T05:02:50.211Z,95.45
2023-05-20T05:07:53.261Z,94.56
2023-05-20T05:12:55.118Z,93.88
2023-05-20T05:17:57.775Z,93.46
2023-05-20T05:22:59.902Z,92.88
2023-05-20T05:28:01.728Z,92.15
2023-05-20T05:33:03.642Z,90.71
2023-05-20T05:38:05.634Z,89.71
2023-05-20T05:43:07.817Z,88.79
2023-05-20T05:48:10.459Z,88.29
2023-05-20T05:53:13.279Z,88.40
2023-05-20T05:58:16.521Z,88.33
2023-05-20T06:03:18.903Z,87.62
2023-05-20T06:08:20.918Z,86.96
2023-05-20T06:13:23.439Z,86.00
2023-05-20T06:18:25.433Z,85.19
2023-05-20T06:23:31.271Z,84.98
2023-05-20T06:28:35.918Z,83.85
2023-05-20T06:33:37.846Z,83.72
2023-05-20T06:38:45.737Z,82.54
2023-05-20T06:43:50.573Z,81.54
2023-05-20T06:49:13.302Z,81.12
2023-05-20T06:54:15.969Z,80.95
2023-05-20T06:59:18.246Z,80.86
2023-05-20T07:04:20.554Z,80.86
2023-05-20T07:09:23.054Z,80.81
2023-05-20T07:14:25.777Z,79.73
2023-05-20T07:19:27.967Z,78.25
2023-05-20T07:24:30.171Z,77.55
2023-05-20T07:29:32.406Z,76.27
2023-05-20T07:34:34.956Z,76.65
2023-05-20T07:39:37.028Z,76.34
2023-05-20T07:44:42.048Z,75.61
2023-05-20T07:49:44.559Z,74.04
2023-05-20T07:54:46.504Z,73.07
2023-05-20T07:59:51.364Z,72.38
2023-05-20T08:04:54.597Z,71.88
2023-05-20T08:09:57.100Z,71.52
2023-05-20T08:14:59.058Z,70.66
2023-05-20T08:20:01.841Z,69.26
2023-05-20T08:25:08.099Z,69.50
2023-05-20T08:30:13.663Z,67.91
2023-05-20T08:35:16.586Z,66.26
2023-05-20T08:40:20.851Z,65.73
2023-05-20T08:45:27.860Z,62.70
2023-05-20T08:50:33.378Z,62.95
2023-05-20T08:55:43.050Z,61.34
2023-05-20T09:00:45.549Z,60.06
2023-05-20T09:05:48.062Z,58.29
2023-05-20T09:10:52.659Z,57.46
2023-05-20T09:15:54.495Z,56.85
2023-05-20T09:20:56.757Z,57.50
2023-05-20T09:26:02.414Z,58.28
2023-05-20T09:31:06.688Z,55.33
2023-05-20T09:36:09.424Z,51.33
2023-05-20T09:41:15.466Z,49.73
2023-05-20T09:46:17.523Z,48.29
2023-05-20T09:51:22.786Z,46.09
2023-05-20T09:56:26.384Z,48.36
2023-05-20T10:01:28.234Z,52.34
2023-05-20T10:06:43.416Z,53.49
2023-05-20T10:11:59.570Z,53.35
2023-05-20T10:17:20.330Z,51.22
2023-05-20T10:22:29.887Z,52.03
2023-05-20T10:27:46.025Z,50.31
2023-05-20T10:32:58.167Z,48.72
2023-05-20T10:38:12.264Z,50.05
2023-05-20T10:43:16.285Z,49.98
2023-05-20T10:48:24.411Z,50.98
2023-05-20T10:53:34.452Z,51.46
2023-05-20T10:58:37.662Z,50.70
2023-05-20T11:03:41.149Z,52.77
2023-05-20T11:08:43.235Z,53.01
2023-05-20T11:13:50.716Z,51.57
2023-05-20T11:18:52.497Z,50.06
2023-05-20T11:23:54.909Z,50.09
2023-05-20T11:28:58.276Z,49.85
2023-05-20T11:34:01.728Z,49.90
2023-05-20T11:39:03.848Z,49.38
2023-05-20T11:44:10.264Z,50.74
2023-05-20T11:49:14.006Z,50.36
2023-05-20T11:54:15.979Z,50.94
2023-05-20T11:59:17.745Z,49.92
2023-05-20T12:04:19.680Z,49.63
2023-05-20T12:09:22.576Z,49.64
2023-05-20T12:14:24.516Z,50.76
2023-05-20T12:19:26.348Z,48.81
2023-05-20T12:24:28.106Z,49.02
2023-05-20T12:29:30.097Z,47.25
2023-05-20T12:34:33.281Z,46.73
2023-05-20T12:39:42.485Z,46.55
2023-05-20T12:44:44.283Z,47.33
2023-05-20T12:49:46.038Z,48.04
2023-05-20T12:54:47.923Z,48.73
2023-05-20T12:59:50.198Z,49.04
2023-05-20T13:04:52.015Z,48.50
2023-05-20T13:09:53.830Z,47.17
2023-05-20T13:14:55.584Z,46.92
2023-05-20T13:19:57.346Z,45.41
2023-05-20T13:24:59.354Z,44.37
2023-05-20T13:30:02.027Z,44.19
2023-05-20T13:35:07.152Z,42.81
2023-05-20T13:40:09.555Z,42.42
2023-05-20T13:45:11.759Z,42.17
2023-05-20T13:50:13.556Z,42.11
2023-05-20T13:55:16.303Z,41.54
2023-05-20T14:00:18.780Z,42.20
2023-05-20T14:05:21.470Z,40.69
2023-05-20T14:10:23.181Z,40.64
2023-05-20T14:15:24.899Z,40.97
2023-05-20T14:20:26.952Z,41.61
2023-05-20T14:25:29.136Z,41.51
2023-05-20T14:30:31.273Z,41.19
2023-05-20T14:35:33.101Z,41.42
2023-05-20T14:40:35.090Z,41.32
2023-05-20T14:45:37.046Z,40.22
2023-05-20T14:50:38.808Z,40.74
2023-05-20T14:55:40.863Z,41.32
2023-05-20T15:00:43.035Z,39.64
2023-05-20T15:05:44.949Z,39.13
2023-05-20T15:10:46.953Z,39.93
2023-05-20T15:15:48.757Z,41.05
2023-05-20T15:20:50.664Z,40.23
2023-05-20T15:25:52.649Z,40.72
2023-05-20T15:30:56.213Z,41.01
2023-05-20T15:35:58.046Z,40.32
2023-05-20T15:40:59.843Z,39.83
2023-05-20T15:46:01.610Z,40.03
2023-05-20T15:51:04.333Z,39.65
2023-05-20T15:56:07.112Z,39.98
2023-05-20T16:01:08.870Z,39.40
2023-05-20T16:06:11.848Z,40.33
2023-05-20T16:11:13.753Z,40.48
2023-05-20T16:16:16.802Z,40.20
2023-05-20T16:21:19.666Z,41.39
2023-05-20T16:26:21.469Z,41.73
2023-05-20T16:31:23.813Z,43.53
2023-05-20T16:36:26.964Z,45.66
2023-05-20T16:41:28.736Z,47.38
2023-05-20T16:46:30.574Z,48.75
2023-05-20T16:51:32.352Z,50.20
2023-05-20T16:56:35.503Z,51.00
2023-05-20T17:01:37.357Z,51.91
2023-05-20T17:06:39.928Z,53.12
2023-05-20T17:11:42.134Z,54.02
2023-05-20T17:16:43.855Z,55.34
2023-05-20T17:21:45.893Z,56.53
2023-05-20T17:26:47.629Z,57.86
2023-05-20T17:31:49.628Z,59.23
2023-05-20T17:36:51.616Z,60.05
2023-05-20T17:41:53.411Z,59.70
2023-05-20T17:46:55.126Z,58.98
2023-05-20T17:51:56.922Z,58.73
2023-05-20T17:56:58.641Z,58.72
2023-05-20T18:02:01.375Z,59.36
2023-05-20T18:07:09.789Z,60.27
2023-05-20T18:12:11.538Z,61.51
2023-05-20T18:17:13.298Z,63.37
2023-05-20T18:22:15.092Z,64.51
2023-05-20T18:27:17.082Z,66.63
2023-05-20T18:32:18.953Z,67.82
2023-05-20T18:37:21.009Z,68.30
2023-05-20T18:42:22.733Z,69.09
2023-05-20T18:47:24.583Z,70.38
2023-05-20T18:52:26.451Z,71.47
2023-05-20T18:57:28.389Z,72.26
2023-05-20T19:02:30.180Z,73.65
2023-05-20T19:07:32.148Z,74.36
2023-05-20T19:12:33.928Z,75.33
2023-05-20T19:17:35.837Z,76.03
2023-05-20T19:22:37.750Z,76.81
2023-05-20T19:27:39.542Z,77.60
2023-05-20T19:32:41.624Z,77.51
2023-05-20T19:37:43.580Z,77.65
2023-05-20T19:42:45.332Z,77.47
2023-05-20T19:47:47.173Z,78.18
2023-05-20T19:52:49.026Z,79.12
2023-05-20T19:57:53.549Z,79.63
2023-05-20T20:02:56.974Z,80.02
2023-05-20T20:07:59.265Z,80.26
2023-05-20T20:13:01.298Z,79.88
2023-05-20T20:18:03.409Z,79.81
2023-05-20T20:23:08.030Z,79.72
2023-05-20T20:28:11.264Z,79.57
2023-05-20T20:33:14.664Z,79.61
2023-05-20T20:38:18.131Z,79.92
2023-05-20T20:43:21.228Z,80.04
2023-05-20T20:48:27.294Z,79.43
2023-05-20T20:53:29.222Z,79.02
2023-05-20T20:58:35.059Z,78.54
2023-05-20T21:03:40.123Z,78.82
2023-05-20T21:08:42.724Z,78.75
2023-05-20T21:13:47.696Z,78.77
2023-05-20T21:18:49.577Z,78.84
2023-05-20T21:23:52.822Z,79.05
2023-05-20T21:28:54.616Z,79.30
2023-05-20T21:33:56.394Z,79.39
2023-05-20T21:38:59.191Z,80.06
2023-05-20T21:44:01.528Z,81.02
2023-05-20T21:49:04.738Z,81.58
2023-05-20T21:54:06.612Z,81.11
2023-05-20T21:59:08.288Z,81.77
2023-05-20T22:04:11.871Z,82.83
2023-05-20T22:09:13.822Z,83.48
2023-05-20T22:14:16.411Z,83.26
2023-05-20T22:19:18.266Z,83.51
2023-05-20T22:24:20.056Z,83.92
2023-05-20T22:29:22.513Z,83.90
2023-05-20T22:34:24.250Z,84.15
2023-05-20T22:39:25.991Z,85.18
2023-05-20T22:44:27.751Z,86.26
2023-05-20T22:49:29.462Z,86.58
2023-05-20T22:54:31.228Z,86.95
2023-05-20T22:59:32.949Z,87.35
2023-05-20T23:04:34.681Z,87.69
2023-05-20T23:09:37.197Z,87.61
2023-05-20T23:14:45.154Z,87.37
2023-05-20T23:19:47.515Z,87.54
2023-05-20T23:24:49.311Z,87.30
2023-05-20T23:29:51.210Z,87.05
2023-05-20T23:34:56.886Z,87.01
2023-05-20T23:39:59.402Z,86.61
2023-05-20T23:45:01.404Z,86.68
2023-05-20T23:50:23.131Z,87.00
2023-05-20T23:55:24.872Z,87.38
